Aérodrome :
LOGIN :

S'inscrire | Disclaimer

   EN    FR    IT 

 










Légende :    VFR   VFR Marginal   IFR   IFR Intensif   IFR Très Intensif
Visi : 
Plafond : 
>= 8 km
>= 3000ft
5 à 8 km
1000 à 3000 ft
1500m à 5 km
500 à 1000 ft
800 à 1500m
200 à 500 ft
< 800m
< 200 ft
Symboles :   Orages  Brouillard  Fortes neiges  Fortes précipitations  Vent > 20 kt
SIGMETs :   Divers  Orages  Givrage  Turbulence  Onde Orograph.  Cendres Volcan.







- Altitude de l'aérodrome : 184 ft
- Code IATA : BRU


EBBR - Bruxelles

DERNIER METAR :
  • 261720Z 32007G20KT 280V360 9999 VCSH FEW012CB BKN039 07/01 Q1014 NOSIG

METARs EXPIRÉS :
  • 261650Z VRB01KT 9999 VCSH FEW012 FEW026CB 07/02 Q1014 NOSIG
  • 261620Z 08006KT 040V110 9999 VCSH FEW032CB 07/01 Q1014 NOSIG
  • 261550Z 01011KT 320V040 9999 VCSH SCT024CB SCT043 08/01 Q1014 NOSIG
  • 261520Z 17004KT 080V210 9999 VCSH FEW022CB SCT049 09/02 Q1014 NOSIG
  • 261450Z 17003KT 150V220 9999 VCSH FEW018CB 08/03 Q1014 NOSIG

TAF TAF EBBR
Valide du 26 à 18h jusqu'au 28 à 00h UTC


261713Z 2618/2724 34005KT 9999 FEW025 SCT040
PROB40
TEMPO 2710/2718 4000 SHRAGS
Pas de NOTAMs connus pour ce terrain.



MET'MAP, la Météo Aéronautique d'un coup d'oeil ! - Copyright ORBIFLY Décembre 2007 - Disclaimer

ORBIFLY MET'MAP TEAM :

Programmation & Développement : Alexandra Zaïnal
Conception & Développement : Baudouin d'Aumeries
Co-Programmation & Développement : Marc-Olivier Méhu
Soutien technique & logistique : Manuel Goepfert

Contact : metmap@orbifly.com




SOURCES & CREDITS :

   NOAA